Time;durP1;ratioP1;P1;durP2;ratioP2;P2;SDS_P1;SDS_P2;PMS_P1;PMS_P2;Temp;Humidity;BMP_temperature;BMP_pressure;BME280_temperature;BME280_humidity;BME280_pressure;Samples;Min_cycle;Max_cycle;Signal;HPM_P1;HPM_P2
2022/03/04 00:02:25;;;;;;;19.50;10.25;;;0.90;73.00;;;;;;5007154;28;20034;-67
2022/03/04 00:04:50;;;;;;;23.02;12.15;;;0.90;73.20;;;;;;5008984;28;20128;-67
2022/03/04 00:07:16;;;;;;;20.67;10.88;;;0.90;73.30;;;;;;5013687;28;20474;-67
2022/03/04 00:09:42;;;;;;;20.42;11.10;;;0.90;73.40;;;;;;5005372;28;20037;-69
2022/03/04 00:12:08;;;;;;;19.92;10.82;;;0.90;73.50;;;;;;5007886;28;20335;-67
2022/03/04 00:14:34;;;;;;;19.90;11.02;;;0.90;73.60;;;;;;5007036;28;20049;-68
2022/03/04 00:16:59;;;;;;;20.50;11.38;;;0.90;73.80;;;;;;5005894;28;20022;-67
2022/03/04 00:19:25;;;;;;;20.38;11.45;;;0.90;73.90;;;;;;5010417;28;20026;-67
2022/03/04 00:21:51;;;;;;;21.27;11.35;;;0.80;74.00;;;;;;5004794;28;20080;-67
2022/03/04 00:24:20;;;;;;;21.83;11.75;;;0.80;74.20;;;;;;5006627;28;20389;-68
2022/03/04 00:26:46;;;;;;;21.58;11.88;;;0.80;74.40;;;;;;5008427;28;20025;-67
2022/03/04 00:29:13;;;;;;;21.83;11.18;;;0.80;74.40;;;;;;5012577;28;20026;-67
2022/03/04 00:31:39;;;;;;;20.85;11.40;;;0.70;74.70;;;;;;5002299;28;20029;-67
2022/03/04 00:34:06;;;;;;;22.73;12.40;;;0.70;74.90;;;;;;5003291;28;20033;-69
2022/03/04 00:36:35;;;;;;;22.45;11.32;;;0.70;75.00;;;;;;5008177;28;20113;-67
2022/03/04 00:39:07;;;;;;;20.85;11.88;;;0.70;75.30;;;;;;5008440;28;20021;-67
2022/03/04 00:41:33;;;;;;;22.53;12.60;;;0.60;75.40;;;;;;5009902;28;20513;-67
2022/03/04 00:43:58;;;;;;;25.65;12.55;;;0.60;75.50;;;;;;5008049;28;20112;-67
2022/03/04 00:46:24;;;;;;;21.75;12.35;;;0.60;75.70;;;;;;5009716;28;20026;-68
2022/03/04 00:48:50;;;;;;;24.85;12.20;;;0.60;76.10;;;;;;5007201;28;20041;-67
2022/03/04 00:51:16;;;;;;;20.38;11.73;;;0.60;76.30;;;;;;5008044;28;20053;-67
2022/03/04 00:53:42;;;;;;;25.33;13.05;;;0.60;76.40;;;;;;5008085;28;20030;-68
2022/03/04 00:56:09;;;;;;;27.75;13.85;;;0.60;76.50;;;;;;5006865;28;20466;-68
2022/03/04 00:58:36;;;;;;;24.25;11.95;;;0.50;76.70;;;;;;5008304;28;20486;-68
2022/03/04 01:01:03;;;;;;;21.15;11.38;;;0.50;76.70;;;;;;5003491;28;20038;-67
2022/03/04 01:03:29;;;;;;;22.95;12.27;;;0.50;76.90;;;;;;5006667;28;20030;-67
2022/03/04 01:05:54;;;;;;;22.58;11.35;;;0.50;77.10;;;;;;5007922;28;20037;-68
2022/03/04 01:08:20;;;;;;;24.10;12.80;;;0.50;77.10;;;;;;5005392;28;20030;-67
2022/03/04 01:10:46;;;;;;;26.13;13.55;;;0.40;77.10;;;;;;5008690;28;20037;-67
2022/03/04 01:13:12;;;;;;;25.63;12.48;;;0.40;77.30;;;;;;5008939;28;20026;-67
2022/03/04 01:15:38;;;;;;;22.30;12.52;;;0.30;77.30;;;;;;5006386;28;20036;-68
2022/03/04 01:18:05;;;;;;;25.98;12.32;;;0.30;77.80;;;;;;5006047;28;20034;-67
2022/03/04 01:20:31;;;;;;;24.52;13.10;;;0.20;77.50;;;;;;5004160;28;20101;-68
2022/03/04 01:22:57;;;;;;;24.70;12.65;;;0.10;77.80;;;;;;5006302;28;20033;-67
2022/03/04 01:25:23;;;;;;;22.02;11.73;;;0.10;78.30;;;;;;5006191;28;20022;-67
2022/03/04 01:27:49;;;;;;;22.30;12.57;;;0.10;78.70;;;;;;5006281;28;20334;-68
2022/03/04 01:30:14;;;;;;;25.80;12.50;;;0.20;79.00;;;;;;5010338;28;20505;-67
2022/03/04 01:32:40;;;;;;;22.95;12.25;;;0.20;79.20;;;;;;5007642;28;20029;-69
2022/03/04 01:35:08;;;;;;;21.58;11.88;;;0.20;79.40;;;;;;5011569;28;20045;-67
2022/03/04 01:37:36;;;;;;;22.85;12.35;;;0.20;79.40;;;;;;5006448;28;20080;-68
2022/03/04 01:40:06;;;;;;;25.02;13.20;;;0.20;79.50;;;;;;5008520;28;20074;-68
2022/03/04 01:42:32;;;;;;;26.88;13.30;;;0.20;79.60;;;;;;5008241;28;20030;-68
2022/03/04 01:44:58;;;;;;;24.92;12.75;;;0.20;79.60;;;;;;5008191;28;20026;-68
2022/03/04 01:47:23;;;;;;;24.23;12.48;;;0.20;79.80;;;;;;5006009;28;20033;-68
2022/03/04 01:49:49;;;;;;;26.17;12.85;;;0.10;79.80;;;;;;5008125;28;20037;-67
2022/03/04 01:52:15;;;;;;;23.60;12.57;;;0.10;80.00;;;;;;5009285;28;20025;-67
2022/03/04 01:54:41;;;;;;;23.83;12.32;;;0.10;80.20;;;;;;5007386;28;20033;-67
2022/03/04 01:57:06;;;;;;;23.05;12.85;;;0.00;80.40;;;;;;5006335;28;20021;-67
2022/03/04 01:59:32;;;;;;;22.90;12.68;;;0.00;80.50;;;;;;5005430;28;20052;-67
2022/03/04 02:01:57;;;;;;;25.17;12.43;;;0.00;80.80;;;;;;5004804;28;20462;-67
2022/03/04 02:04:25;;;;;;;23.45;11.93;;;0.00;81.00;;;;;;5005746;28;20048;-67
2022/03/04 02:06:51;;;;;;;23.77;12.27;;;0.00;81.30;;;;;;5004959;28;20028;-67
2022/03/04 02:09:17;;;;;;;24.63;12.65;;;0.00;81.40;;;;;;5006734;28;20474;-67
2022/03/04 02:11:44;;;;;;;21.45;12.43;;;0.00;81.60;;;;;;5006575;28;20041;-67
2022/03/04 02:14:13;;;;;;;30.02;12.63;;;0.00;81.70;;;;;;5007478;28;20642;-67
2022/03/04 02:16:51;;;;;;;25.85;12.35;;;0.00;81.90;;;;;;5012783;28;20022;-67
2022/03/04 02:19:18;;;;;;;19.83;11.50;;;0.00;82.10;;;;;;5009612;28;20087;-67
2022/03/04 02:21:50;;;;;;;21.17;11.88;;;0.00;81.90;;;;;;5011168;28;20030;-67
2022/03/04 02:24:17;;;;;;;24.05;12.50;;;0.00;82.10;;;;;;5008375;28;20075;-67
2022/03/04 02:26:43;;;;;;;23.88;12.05;;;0.00;81.90;;;;;;5012510;28;20160;-67
2022/03/04 02:29:08;;;;;;;22.98;12.25;;;0.00;82.00;;;;;;5009486;28;20022;-67
2022/03/04 02:31:34;;;;;;;24.45;12.23;;;0.00;82.00;;;;;;5018432;28;20513;-67
2022/03/04 02:34:00;;;;;;;26.70;12.55;;;0.00;82.00;;;;;;5008922;28;20084;-67
2022/03/04 02:36:25;;;;;;;26.25;12.98;;;0.00;82.10;;;;;;5011688;28;20041;-67
2022/03/04 02:38:51;;;;;;;25.73;13.15;;;0.00;82.10;;;;;;5008894;28;20029;-67
2022/03/04 02:41:16;;;;;;;26.55;13.18;;;0.00;82.30;;;;;;5011082;28;20036;-67
2022/03/04 02:43:42;;;;;;;26.23;13.18;;;0.00;82.50;;;;;;5010085;28;20026;-67
2022/03/04 02:46:08;;;;;;;23.25;12.75;;;0.00;82.60;;;;;;5011686;28;20390;-67
2022/03/04 02:48:34;;;;;;;25.73;12.63;;;0.00;82.70;;;;;;5008595;28;20100;-67
2022/03/04 02:50:59;;;;;;;25.95;13.70;;;0.00;82.70;;;;;;5010255;28;20072;-67
2022/03/04 02:53:25;;;;;;;23.85;12.32;;;0.00;82.90;;;;;;5010603;28;20037;-67
2022/03/04 02:55:50;;;;;;;23.15;12.25;;;0.00;83.10;;;;;;5007789;28;20109;-68
2022/03/04 02:58:16;;;;;;;21.33;11.30;;;0.00;83.40;;;;;;5009824;28;20113;-67
2022/03/04 03:00:42;;;;;;;25.52;13.02;;;0.00;83.60;;;;;;5010095;28;20065;-67
2022/03/04 03:03:07;;;;;;;24.48;13.20;;;0.00;83.60;;;;;;5011145;28;20030;-67
2022/03/04 03:05:33;;;;;;;25.35;12.35;;;0.00;83.60;;;;;;5011127;28;20045;-67
2022/03/04 03:07:59;;;;;;;27.95;12.05;;;-0.10;83.70;;;;;;4992579;28;20026;-67
2022/03/04 03:10:24;;;;;;;21.80;11.98;;;-0.10;83.90;;;;;;5009831;28;20025;-67
2022/03/04 03:12:51;;;;;;;22.52;12.80;;;-0.10;84.10;;;;;;5008940;28;20145;-69
2022/03/04 03:15:16;;;;;;;29.20;14.65;;;-0.20;84.10;;;;;;5011347;28;20033;-67
2022/03/04 03:17:42;;;;;;;27.92;14.68;;;-0.20;84.30;;;;;;5009777;28;20083;-67
2022/03/04 03:20:09;;;;;;;30.67;15.30;;;-0.20;84.30;;;;;;5010236;28;20093;-67
2022/03/04 03:22:34;;;;;;;24.30;13.77;;;-0.20;84.30;;;;;;5010567;28;20026;-67
2022/03/04 03:25:00;;;;;;;27.33;13.55;;;-0.30;84.40;;;;;;5010649;28;20084;-67
2022/03/04 03:27:25;;;;;;;23.58;11.68;;;-0.30;84.70;;;;;;5007553;28;20079;-67
2022/03/04 03:29:51;;;;;;;25.73;13.63;;;-0.30;85.10;;;;;;5010212;28;20029;-67
2022/03/04 03:32:17;;;;;;;24.20;12.57;;;-0.30;85.50;;;;;;5010133;28;20205;-68
2022/03/04 03:34:42;;;;;;;26.15;13.20;;;-0.30;85.60;;;;;;5010824;28;20036;-67
2022/03/04 03:37:09;;;;;;;25.00;12.45;;;-0.20;85.90;;;;;;5010376;28;20426;-67
2022/03/04 03:39:36;;;;;;;24.95;13.70;;;-0.30;86.10;;;;;;5014193;28;20132;-67
2022/03/04 03:42:02;;;;;;;24.38;13.40;;;-0.20;86.40;;;;;;5009601;28;20037;-67
2022/03/04 03:44:28;;;;;;;24.73;13.60;;;-0.30;86.50;;;;;;5008143;28;20143;-67
2022/03/04 03:46:55;;;;;;;23.40;13.25;;;-0.30;86.30;;;;;;5006835;28;20637;-67
2022/03/04 03:49:20;;;;;;;25.10;13.18;;;-0.30;86.30;;;;;;5008228;28;20544;-67
2022/03/04 03:51:46;;;;;;;26.00;13.57;;;-0.40;86.40;;;;;;5009356;28;20030;-69
2022/03/04 03:54:11;;;;;;;23.90;12.90;;;-0.40;86.80;;;;;;5007230;28;20036;-67
2022/03/04 03:56:38;;;;;;;24.80;12.93;;;-0.40;87.00;;;;;;5010577;28;20018;-67
2022/03/04 03:59:03;;;;;;;24.50;13.30;;;-0.40;87.20;;;;;;5005455;28;20133;-68
2022/03/04 04:01:29;;;;;;;25.23;13.50;;;-0.50;87.40;;;;;;5008745;28;20033;-67
2022/03/04 04:03:55;;;;;;;28.40;14.55;;;-0.50;87.50;;;;;;5004889;28;20560;-67
2022/03/04 04:06:20;;;;;;;25.17;12.63;;;-0.50;87.70;;;;;;5007902;28;20018;-67
2022/03/04 04:08:46;;;;;;;27.17;13.10;;;-0.50;88.00;;;;;;5008305;28;20367;-67
2022/03/04 04:11:12;;;;;;;26.20;14.20;;;-0.50;88.20;;;;;;5008882;28;20431;-67
2022/03/04 04:13:38;;;;;;;24.63;13.27;;;-0.50;88.20;;;;;;5002947;28;20090;-67
2022/03/04 04:16:04;;;;;;;25.20;13.68;;;-0.40;88.50;;;;;;5008352;28;20038;-67
2022/03/04 04:18:30;;;;;;;29.20;14.20;;;-0.40;88.60;;;;;;5008693;28;20494;-67
2022/03/04 04:20:55;;;;;;;26.20;13.90;;;-0.40;88.60;;;;;;5009646;28;20034;-67
2022/03/04 04:23:21;;;;;;;26.92;14.30;;;-0.40;88.50;;;;;;5008066;28;20096;-67
2022/03/04 04:25:47;;;;;;;28.83;14.73;;;-0.40;88.70;;;;;;5010469;28;20089;-67
2022/03/04 04:28:13;;;;;;;29.67;14.88;;;-0.40;88.80;;;;;;5004467;28;20052;-67
2022/03/04 04:30:38;;;;;;;30.45;14.57;;;-0.40;88.90;;;;;;5009988;28;20030;-69
2022/03/04 04:33:04;;;;;;;30.10;13.60;;;-0.40;88.90;;;;;;5003986;28;20034;-68
2022/03/04 04:35:29;;;;;;;27.13;13.77;;;-0.40;89.00;;;;;;5002172;28;20164;-67
2022/03/04 04:37:56;;;;;;;30.20;13.95;;;-0.40;88.90;;;;;;4984169;28;20059;-69
2022/03/04 04:40:22;;;;;;;26.25;14.02;;;-0.40;88.90;;;;;;5005939;28;20166;-67
2022/03/04 04:42:47;;;;;;;27.65;13.73;;;-0.50;88.70;;;;;;5009091;28;20030;-67
2022/03/04 04:45:13;;;;;;;24.55;13.65;;;-0.50;88.60;;;;;;5008430;28;20386;-67
2022/03/04 04:47:39;;;;;;;28.65;13.80;;;-0.50;88.50;;;;;;5006443;28;20030;-67
2022/03/04 04:50:05;;;;;;;28.02;14.50;;;-0.60;88.40;;;;;;5007350;28;20463;-67
2022/03/04 04:52:31;;;;;;;24.40;14.15;;;-0.50;88.60;;;;;;5004631;28;20034;-69
2022/03/04 04:54:56;;;;;;;28.30;14.75;;;-0.50;88.70;;;;;;5009174;28;20033;-68
2022/03/04 04:57:22;;;;;;;24.25;13.80;;;-0.50;88.90;;;;;;5007135;28;20038;-69
2022/03/04 04:59:48;;;;;;;28.48;14.52;;;-0.60;88.80;;;;;;5009212;28;20029;-66
2022/03/04 05:02:13;;;;;;;25.35;13.65;;;-0.60;89.10;;;;;;5009155;28;20026;-68
2022/03/04 05:04:39;;;;;;;28.88;14.88;;;-0.60;89.20;;;;;;5007413;28;20094;-67
2022/03/04 05:07:05;;;;;;;27.45;15.10;;;-0.60;89.50;;;;;;5007132;28;20088;-67
2022/03/04 05:09:30;;;;;;;27.20;14.57;;;-0.60;89.70;;;;;;5005078;28;20037;-66
2022/03/04 05:11:56;;;;;;;27.52;14.77;;;-0.60;89.70;;;;;;5005759;28;20040;-66
2022/03/04 05:14:21;;;;;;;25.88;13.95;;;-0.60;89.30;;;;;;5006800;28;20038;-66
2022/03/04 05:16:47;;;;;;;29.50;14.95;;;-0.60;89.30;;;;;;5008201;28;20474;-66
2022/03/04 05:19:13;;;;;;;28.42;14.27;;;-0.70;89.20;;;;;;5007785;28;20030;-69
2022/03/04 05:21:38;;;;;;;27.45;14.43;;;-0.70;89.20;;;;;;5004745;28;20034;-68
2022/03/04 05:24:06;;;;;;;26.92;14.32;;;-0.70;89.30;;;;;;5007429;28;20025;-67
2022/03/04 05:26:34;;;;;;;28.20;13.75;;;-0.70;89.50;;;;;;5009680;28;20021;-67
2022/03/04 05:29:03;;;;;;;33.25;14.68;;;-0.70;89.90;;;;;;4988881;28;20386;-66
2022/03/04 05:31:28;;;;;;;27.77;14.90;;;-0.70;89.90;;;;;;4999804;28;20044;-66
2022/03/04 05:33:55;;;;;;;27.60;14.20;;;-0.70;90.00;;;;;;5008154;28;20033;-65
2022/03/04 05:36:21;;;;;;;28.88;14.13;;;-0.70;90.10;;;;;;5007991;28;20022;-67
2022/03/04 05:38:48;;;;;;;26.92;14.70;;;-0.60;90.10;;;;;;5008818;28;20145;-66
2022/03/04 05:41:15;;;;;;;26.75;14.30;;;-0.60;90.10;;;;;;5032921;23;20128;-74
2022/03/04 05:43:41;;;;;;;26.58;14.30;;;-0.70;90.00;;;;;;5026964;28;20053;-73
2022/03/04 05:46:07;;;;;;;25.25;13.52;;;-0.70;90.00;;;;;;5028052;28;20070;-73
2022/03/04 05:48:33;;;;;;;29.95;15.20;;;-0.70;90.00;;;;;;5008559;28;20439;-73
2022/03/04 05:50:59;;;;;;;27.17;14.63;;;-0.70;90.20;;;;;;5006900;28;20026;-73
2022/03/04 05:53:25;;;;;;;24.30;14.48;;;-0.70;90.20;;;;;;5009933;28;20029;-73
2022/03/04 05:55:50;;;;;;;23.35;13.43;;;-0.70;90.10;;;;;;5009096;28;20084;-73
2022/03/04 05:58:16;;;;;;;26.27;13.88;;;-0.70;90.20;;;;;;5010270;28;20053;-73
2022/03/04 06:00:42;;;;;;;28.45;15.15;;;-0.70;90.10;;;;;;5008480;28;20026;-73
2022/03/04 06:03:08;;;;;;;25.80;14.25;;;-0.70;90.20;;;;;;5008617;28;20057;-72
2022/03/04 06:05:34;;;;;;;31.88;15.27;;;-0.80;90.20;;;;;;4986830;28;20050;-73
2022/03/04 06:07:59;;;;;;;26.63;14.27;;;-0.80;90.30;;;;;;5008344;28;20029;-73
2022/03/04 06:10:25;;;;;;;27.25;15.00;;;-0.80;90.40;;;;;;5008678;28;20439;-73
2022/03/04 06:12:51;;;;;;;31.38;15.68;;;-0.80;90.60;;;;;;5002786;28;20529;-73
2022/03/04 06:15:17;;;;;;;31.00;15.20;;;-0.80;90.70;;;;;;5005304;28;20026;-72
2022/03/04 06:17:50;;;;;;;33.70;15.85;;;-0.90;90.50;;;;;;4981196;28;20022;-73
2022/03/04 06:20:16;;;;;;;27.33;15.18;;;-0.90;90.50;;;;;;5005259;28;20425;-73
2022/03/04 06:22:43;;;;;;;29.10;15.32;;;-0.90;90.50;;;;;;4995199;28;20026;-74
2022/03/04 06:25:10;;;;;;;28.38;14.88;;;-0.90;90.60;;;;;;5004426;28;20092;-73
2022/03/04 06:27:36;;;;;;;30.42;14.98;;;-0.90;90.80;;;;;;5002986;28;20041;-74
2022/03/04 06:30:04;;;;;;;27.48;14.85;;;-0.90;90.90;;;;;;5009441;28;20041;-73
2022/03/04 06:32:29;;;;;;;35.50;16.60;;;-0.80;91.10;;;;;;5010804;28;20034;-74
2022/03/04 06:34:55;;;;;;;28.17;15.15;;;-0.80;91.20;;;;;;5010229;28;20057;-73
2022/03/04 06:37:21;;;;;;;31.02;15.63;;;-0.70;91.20;;;;;;5009808;28;20038;-73
2022/03/04 06:39:46;;;;;;;30.75;16.08;;;-0.70;91.30;;;;;;4992514;28;20124;-71
2022/03/04 06:42:12;;;;;;;33.28;15.75;;;-0.50;91.30;;;;;;5008710;28;20105;-73
2022/03/04 06:44:37;;;;;;;27.17;15.15;;;-0.10;91.10;;;;;;5008795;28;20026;-73
2022/03/04 06:47:03;;;;;;;24.67;14.98;;;0.30;91.00;;;;;;5009543;28;20032;-72
2022/03/04 06:49:29;;;;;;;29.33;15.20;;;0.70;90.60;;;;;;5010281;28;20037;-74
2022/03/04 06:51:54;;;;;;;27.83;14.68;;;1.10;90.30;;;;;;4992945;28;20026;-74
2022/03/04 06:54:20;;;;;;;26.48;13.88;;;1.30;90.10;;;;;;4992162;28;20038;-70
2022/03/04 06:56:46;;;;;;;29.10;14.65;;;1.70;89.70;;;;;;5012008;28;20022;-71
2022/03/04 06:59:11;;;;;;;25.50;14.65;;;2.10;88.70;;;;;;5008756;28;20026;-73
2022/03/04 07:01:37;;;;;;;35.67;17.70;;;2.40;88.00;;;;;;5012080;28;20422;-75
2022/03/04 07:04:03;;;;;;;29.15;15.50;;;2.60;88.00;;;;;;5013540;28;20022;-72
2022/03/04 07:06:28;;;;;;;29.33;15.23;;;2.70;88.20;;;;;;5013646;28;20080;-72
2022/03/04 07:08:54;;;;;;;30.55;14.88;;;2.80;88.20;;;;;;5011834;28;20100;-72
2022/03/04 07:11:19;;;;;;;25.35;14.63;;;3.20;87.30;;;;;;5012247;28;20021;-74
2022/03/04 07:13:45;;;;;;;28.20;15.02;;;3.60;86.50;;;;;;4996231;28;20026;-74
2022/03/04 07:16:10;;;;;;;26.85;14.80;;;3.80;85.80;;;;;;5012953;28;20128;-74
2022/03/04 07:18:36;;;;;;;25.48;14.52;;;3.80;85.80;;;;;;5013222;28;20030;-74
2022/03/04 07:21:02;;;;;;;28.17;14.82;;;3.70;86.40;;;;;;4995950;28;20057;-75
2022/03/04 07:23:28;;;;;;;32.38;15.38;;;3.80;86.60;;;;;;4995818;28;20033;-74
2022/03/04 07:25:53;;;;;;;29.48;16.95;;;4.20;85.70;;;;;;5013796;28;20037;-74
2022/03/04 07:28:19;;;;;;;27.83;15.40;;;4.60;84.70;;;;;;5012154;28;20014;-74
2022/03/04 07:30:44;;;;;;;26.08;13.63;;;5.00;83.50;;;;;;5010318;28;20026;-75
2022/03/04 07:33:10;;;;;;;22.42;13.60;;;5.10;83.30;;;;;;5013332;28;20030;-76
2022/03/04 07:35:39;;;;;;;26.02;14.13;;;5.10;84.20;;;;;;5013635;28;20105;-76
2022/03/04 07:38:05;;;;;;;27.67;15.75;;;5.40;84.00;;;;;;5012428;28;20079;-76
2022/03/04 07:40:30;;;;;;;26.33;14.65;;;5.80;82.30;;;;;;4996903;28;20128;-76
2022/03/04 07:42:56;;;;;;;25.08;15.10;;;6.20;81.20;;;;;;4996309;28;20050;-75
2022/03/04 07:45:22;;;;;;;28.17;15.52;;;6.60;80.00;;;;;;5010627;28;20029;-77
2022/03/04 07:47:48;;;;;;;27.25;15.65;;;6.80;79.20;;;;;;5011642;28;20026;-75
2022/03/04 07:50:15;;;;;;;26.38;14.52;;;6.90;79.30;;;;;;5012518;28;20088;-75
2022/03/04 07:52:41;;;;;;;30.42;16.13;;;7.10;79.20;;;;;;5009775;28;20498;-76
2022/03/04 07:55:09;;;;;;;25.08;15.45;;;7.50;77.60;;;;;;4995250;28;20041;-76
2022/03/04 07:57:35;;;;;;;24.75;15.13;;;7.60;76.70;;;;;;5010603;28;20044;-76
2022/03/04 08:00:04;;;;;;;29.35;15.85;;;7.90;76.20;;;;;;5011720;28;20049;-76
2022/03/04 08:02:30;;;;;;;28.95;16.95;;;8.20;75.40;;;;;;4993261;28;20386;-76
2022/03/04 08:04:58;;;;;;;27.05;15.65;;;8.10;74.60;;;;;;5011736;28;20026;-76
2022/03/04 08:07:24;;;;;;;26.95;15.25;;;8.00;75.30;;;;;;5010043;28;20037;-76
2022/03/04 08:09:50;;;;;;;27.00;15.73;;;8.10;75.30;;;;;;5011952;28;20021;-76
2022/03/04 08:12:15;;;;;;;26.33;15.43;;;8.30;75.20;;;;;;4992445;28;20014;-76
2022/03/04 08:14:41;;;;;;;26.05;16.02;;;8.40;74.90;;;;;;5010991;28;20084;-76
2022/03/04 08:17:07;;;;;;;27.92;16.17;;;8.30;74.20;;;;;;5011032;28;20026;-76
2022/03/04 08:19:33;;;;;;;25.27;15.70;;;8.30;74.40;;;;;;5010724;28;20041;-76
2022/03/04 08:21:59;;;;;;;28.42;15.68;;;8.10;74.70;;;;;;4993987;28;20034;-76
2022/03/04 08:24:25;;;;;;;31.67;16.02;;;8.00;75.40;;;;;;5010958;28;20026;-77
2022/03/04 08:26:50;;;;;;;29.13;16.15;;;7.80;75.80;;;;;;5012778;28;20386;-76
2022/03/04 08:29:16;;;;;;;27.73;16.67;;;7.70;76.50;;;;;;5009996;28;20157;-76
2022/03/04 08:31:41;;;;;;;27.23;16.85;;;7.70;76.60;;;;;;5013753;28;20113;-76
2022/03/04 08:34:07;;;;;;;28.30;16.65;;;7.60;76.00;;;;;;4994769;28;20042;-76
2022/03/04 08:36:33;;;;;;;28.25;15.18;;;7.50;76.40;;;;;;4993658;28;20502;-77
2022/03/04 08:39:03;;;;;;;28.40;17.02;;;7.50;77.00;;;;;;5004241;28;20045;-77
2022/03/04 08:41:32;;;;;;;28.88;17.08;;;7.50;77.60;;;;;;5011046;28;20037;-76
2022/03/04 08:43:58;;;;;;;29.85;17.02;;;7.50;76.80;;;;;;4992901;28;20025;-76
2022/03/04 08:46:24;;;;;;;28.95;16.63;;;7.50;76.50;;;;;;4992546;28;20088;-76
2022/03/04 08:48:50;;;;;;;29.25;16.58;;;7.40;76.70;;;;;;5010219;28;20029;-73
2022/03/04 08:51:15;;;;;;;29.48;17.15;;;7.30;76.60;;;;;;5005568;28;20018;-77
2022/03/04 08:53:41;;;;;;;29.88;17.23;;;7.20;76.40;;;;;;5001778;28;20037;-75
2022/03/04 08:56:07;;;;;;;29.25;16.88;;;7.10;76.20;;;;;;4994803;28;20088;-74
2022/03/04 08:58:33;;;;;;;33.05;18.08;;;7.00;75.80;;;;;;5009401;28;20037;-75
2022/03/04 09:00:59;;;;;;;29.63;17.50;;;7.00;75.50;;;;;;5010809;28;20022;-76
2022/03/04 09:03:26;;;;;;;28.52;16.88;;;6.90;74.90;;;;;;5011772;28;20034;-73
2022/03/04 09:05:52;;;;;;;30.33;17.05;;;6.90;75.00;;;;;;5011164;28;20076;-76
2022/03/04 09:08:18;;;;;;;33.47;18.10;;;6.90;75.00;;;;;;5010408;28;20414;-76
2022/03/04 09:10:44;;;;;;;29.38;17.08;;;6.90;74.70;;;;;;5011213;28;20038;-74
2022/03/04 09:13:09;;;;;;;31.30;16.55;;;6.80;74.40;;;;;;5011537;28;20434;-75
2022/03/04 09:15:35;;;;;;;30.55;17.23;;;6.80;74.40;;;;;;5016835;28;20121;-75
2022/03/04 09:18:01;;;;;;;29.95;16.67;;;6.80;74.60;;;;;;5021746;28;20022;-75
2022/03/04 09:20:26;;;;;;;31.45;17.42;;;6.80;74.60;;;;;;5011485;28;20433;-75
2022/03/04 09:22:53;;;;;;;27.48;16.17;;;6.80;74.30;;;;;;5010650;28;20029;-75
2022/03/04 09:25:18;;;;;;;33.38;16.50;;;6.80;74.60;;;;;;5010955;28;20448;-76
2022/03/04 09:27:46;;;;;;;29.00;16.48;;;6.90;74.80;;;;;;5009732;28;20101;-75
2022/03/04 09:30:12;;;;;;;30.58;16.60;;;7.00;74.80;;;;;;5011558;28;20033;-76
2022/03/04 09:32:39;;;;;;;31.23;16.27;;;7.10;74.70;;;;;;5011342;28;20441;-76
2022/03/04 09:35:05;;;;;;;32.38;17.30;;;7.10;74.20;;;;;;5011040;28;20022;-75
2022/03/04 09:37:31;;;;;;;29.83;16.65;;;7.20;74.20;;;;;;5010575;28;20564;-76
2022/03/04 09:39:57;;;;;;;31.88;17.50;;;7.30;73.80;;;;;;5010376;28;20061;-76
2022/03/04 09:42:23;;;;;;;30.95;16.35;;;7.40;74.10;;;;;;5009275;28;20079;-76
2022/03/04 09:44:49;;;;;;;27.58;15.85;;;7.50;74.40;;;;;;4989396;28;20025;-78
2022/03/04 09:47:21;;;;;;;30.02;16.15;;;7.60;74.10;;;;;;5009196;28;20026;-76
2022/03/04 09:49:48;;;;;;;28.15;15.43;;;7.60;73.50;;;;;;5011291;28;20047;-76
2022/03/04 09:52:13;;;;;;;32.33;16.58;;;7.70;73.70;;;;;;5008998;28;20097;-77
2022/03/04 09:54:39;;;;;;;27.70;16.15;;;7.80;73.40;;;;;;5010366;28;20105;-77
2022/03/04 09:57:05;;;;;;;27.33;14.90;;;7.90;73.40;;;;;;5007444;28;20037;-77
2022/03/04 09:59:30;;;;;;;26.77;15.35;;;8.10;73.40;;;;;;5001377;28;20049;-77
2022/03/04 10:01:58;;;;;;;27.83;15.57;;;8.20;72.80;;;;;;5008384;28;20509;-76
2022/03/04 10:04:31;;;;;;;31.83;16.17;;;8.20;72.50;;;;;;5010641;28;20069;-76
2022/03/04 10:06:57;;;;;;;29.52;16.20;;;8.20;71.70;;;;;;5010668;28;20026;-76
2022/03/04 10:09:42;;;;;;;29.95;16.08;;;8.20;71.80;;;;;;5006412;28;20022;-75
2022/03/04 10:12:11;;;;;;;27.25;14.73;;;8.30;71.90;;;;;;5009516;28;20022;-76
2022/03/04 10:15:00;;;;;;;29.23;15.90;;;8.40;71.90;;;;;;5009947;28;20030;-75
2022/03/04 10:17:26;;;;;;;26.73;14.77;;;8.40;71.10;;;;;;4991221;28;20022;-76
2022/03/04 10:20:00;;;;;;;28.58;15.23;;;8.50;70.70;;;;;;5010633;28;20021;-75
2022/03/04 10:22:42;;;;;;;23.63;14.05;;;8.40;70.00;;;;;;5010956;28;20022;-74
2022/03/04 10:25:14;;;;;;;26.67;14.13;;;8.30;69.90;;;;;;4992917;28;20121;-75
2022/03/04 10:27:40;;;;;;;27.02;14.82;;;8.40;70.20;;;;;;5007940;28;20029;-73
2022/03/04 10:30:06;;;;;;;27.50;14.63;;;8.40;70.30;;;;;;4984465;28;20025;-75
2022/03/04 10:32:32;;;;;;;27.38;14.55;;;8.50;70.20;;;;;;5009684;28;20524;-76
2022/03/04 10:35:05;;;;;;;28.55;14.52;;;8.50;69.80;;;;;;4993533;28;20026;-76
2022/03/04 10:37:54;;;;;;;26.35;15.32;;;8.50;69.10;;;;;;4999241;28;20072;-76
2022/03/04 10:40:22;;;;;;;27.63;14.05;;;8.60;69.20;;;;;;5017382;28;20865;-76
2022/03/04 10:42:52;;;;;;;29.30;13.98;;;8.60;69.00;;;;;;4998334;28;20117;-76
2022/03/04 10:45:19;;;;;;;29.80;14.73;;;8.60;68.90;;;;;;5023222;28;20115;-76
2022/03/04 10:47:46;;;;;;;25.33;13.85;;;8.60;68.80;;;;;;5012748;28;20018;-76
2022/03/04 10:50:13;;;;;;;24.80;14.55;;;8.60;68.70;;;;;;5014588;28;20026;-76
2022/03/04 10:52:58;;;;;;;25.08;14.23;;;8.60;68.00;;;;;;4995855;28;20030;-76
2022/03/04 10:55:40;;;;;;;23.13;13.20;;;8.50;67.40;;;;;;5014513;28;20531;-76
2022/03/04 10:58:12;;;;;;;30.58;16.40;;;8.50;67.30;;;;;;4994016;28;20552;-77
2022/03/04 11:00:38;;;;;;;26.67;14.98;;;8.50;67.70;;;;;;4994544;28;20030;-76
2022/03/04 11:03:08;;;;;;;28.70;14.07;;;8.50;67.50;;;;;;5006407;28;20037;-77
2022/03/04 11:05:34;;;;;;;28.15;14.43;;;8.40;67.00;;;;;;4995769;28;20041;-76
2022/03/04 11:08:01;;;;;;;26.02;14.55;;;8.30;66.80;;;;;;5013200;28;20497;-76
2022/03/04 11:10:26;;;;;;;26.85;14.68;;;8.20;66.70;;;;;;5013681;28;20512;-77
2022/03/04 11:12:55;;;;;;;27.08;14.50;;;8.20;66.70;;;;;;5013709;28;20017;-77
2022/03/04 11:15:23;;;;;;;27.98;14.77;;;8.10;67.00;;;;;;5002894;28;20101;-76
2022/03/04 11:17:49;;;;;;;27.50;15.50;;;8.20;66.80;;;;;;5000061;28;20030;-76
2022/03/04 11:20:17;;;;;;;25.40;14.75;;;8.20;67.10;;;;;;5013570;28;20074;-75
2022/03/04 11:22:47;;;;;;;26.17;15.02;;;8.20;66.90;;;;;;5013509;28;20088;-76
2022/03/04 11:25:14;;;;;;;24.88;14.07;;;8.20;66.90;;;;;;4998688;28;20680;-76
2022/03/04 11:27:52;;;;;;;25.42;13.80;;;8.20;66.60;;;;;;5014019;28;20101;-76
2022/03/04 11:30:34;;;;;;;25.30;13.25;;;8.30;66.40;;;;;;5012712;28;20382;-75
2022/03/04 11:33:04;;;;;;;23.50;12.27;;;8.40;66.20;;;;;;4995522;28;20080;-75
2022/03/04 11:35:51;;;;;;;19.52;11.30;;;8.50;65.70;;;;;;5013384;28;20052;-72
2022/03/04 11:38:36;;;;;;;23.13;12.10;;;8.50;65.00;;;;;;4994228;28;20421;-74
2022/03/04 11:41:02;;;;;;;19.65;11.07;;;8.60;64.90;;;;;;5026528;23;20041;-67
2022/03/04 11:43:49;;;;;;;21.45;11.50;;;8.50;64.50;;;;;;5020612;28;20072;-70
2022/03/04 11:46:22;;;;;;;22.25;11.80;;;8.50;63.40;;;;;;5021647;28;20021;-69
2022/03/04 11:49:26;;;;;;;19.52;11.02;;;8.50;63.70;;;;;;5025011;28;20068;-70
2022/03/04 11:52:07;;;;;;;20.77;11.13;;;8.50;64.40;;;;;;4991730;28;20430;-67
2022/03/04 11:54:34;;;;;;;20.08;11.10;;;8.70;63.80;;;;;;4997091;28;20025;-67
2022/03/04 11:57:27;;;;;;;18.05;10.27;;;8.80;63.80;;;;;;4997629;28;20445;-67
2022/03/04 12:00:24;;;;;;;18.27;10.20;;;8.90;62.70;;;;;;5001855;28;20030;-67
2022/03/04 12:02:58;;;;;;;18.08;10.75;;;8.90;62.90;;;;;;5012342;28;20034;-67
2022/03/04 12:05:25;;;;;;;23.42;12.23;;;9.00;62.90;;;;;;5002428;28;20045;-68
2022/03/04 12:07:54;;;;;;;21.38;10.98;;;9.10;62.60;;;;;;4998111;28;20574;-70
2022/03/04 12:10:24;;;;;;;17.08;9.85;;;9.20;62.30;;;;;;5003657;28;20093;-67
2022/03/04 12:13:05;;;;;;;16.48;9.10;;;9.20;61.70;;;;;;5011605;28;20113;-68
2022/03/04 12:15:37;;;;;;;18.67;10.63;;;9.30;61.20;;;;;;5000315;28;20030;-68
2022/03/04 12:18:35;;;;;;;21.02;11.00;;;9.30;61.20;;;;;;5010498;28;20030;-68
2022/03/04 12:21:06;;;;;;;17.80;10.27;;;9.30;61.40;;;;;;5011470;28;20478;-68
2022/03/04 12:23:47;;;;;;;19.65;11.25;;;9.40;61.30;;;;;;5012335;28;20064;-68
2022/03/04 12:26:25;;;;;;;16.83;10.07;;;9.40;61.60;;;;;;5012243;28;20026;-70
2022/03/04 12:29:13;;;;;;;17.40;10.20;;;9.50;61.10;;;;;;5001306;28;20098;-70
2022/03/04 12:31:41;;;;;;;17.88;10.07;;;9.50;60.60;;;;;;4992092;28;20034;-69
2022/03/04 12:34:17;;;;;;;19.13;10.63;;;9.40;60.10;;;;;;4993087;28;20105;-69
2022/03/04 12:36:42;;;;;;;19.52;10.90;;;9.30;59.90;;;;;;4992435;28;20025;-70